createdAt,value
2022-08-18T00:00:18.391Z,97333.75
2022-08-18T00:02:28.110Z,97330.28
2022-08-18T00:04:36.326Z,97331.13
2022-08-18T00:06:38.127Z,97327.66
2022-08-18T00:08:39.426Z,97336.25
2022-08-18T00:10:40.726Z,97337.13
2022-08-18T00:12:43.280Z,97332.91
2022-08-18T00:14:44.639Z,97333.41
2022-08-18T00:16:45.995Z,97335.03
2022-08-18T00:18:47.319Z,97336.84
2022-08-18T00:20:48.736Z,97331.84
2022-08-18T00:22:50.339Z,97333.81
2022-08-18T00:24:51.862Z,97328.41
2022-08-18T00:26:54.717Z,97322.31
2022-08-18T00:28:56.686Z,97323.97
2022-08-18T00:30:58.000Z,97321.50
2022-08-18T00:32:59.298Z,97328.34
2022-08-18T00:35:00.610Z,97326.75
2022-08-18T00:37:01.928Z,97327.63
2022-08-18T00:39:03.596Z,97331.16
2022-08-18T00:41:04.904Z,97320.91
2022-08-18T00:43:06.218Z,97321.66
2022-08-18T00:45:07.535Z,97327.63
2022-08-18T00:47:08.935Z,97325.81
2022-08-18T00:49:10.246Z,97324.09
2022-08-18T00:51:11.582Z,97337.75
2022-08-18T00:53:12.902Z,97336.16
2022-08-18T00:55:14.218Z,97336.03
2022-08-18T00:57:15.523Z,97335.97
2022-08-18T00:59:16.859Z,97337.03
2022-08-18T01:01:18.229Z,97340.56
2022-08-18T01:03:22.230Z,97339.06
2022-08-18T01:05:26.433Z,97346.66
2022-08-18T01:07:29.734Z,97340.78
2022-08-18T01:09:31.119Z,97333.94
2022-08-18T01:11:32.467Z,97334.59
2022-08-18T01:13:33.787Z,97332.03
2022-08-18T01:15:35.117Z,97334.56
2022-08-18T01:17:54.988Z,97335.53
2022-08-18T01:20:14.983Z,97334.06
2022-08-18T01:22:16.311Z,97330.97
2022-08-18T01:24:21.723Z,97332.78
2022-08-18T01:26:23.335Z,97318.38
2022-08-18T01:28:24.656Z,97325.25
2022-08-18T01:30:26.104Z,97320.09
2022-08-18T01:32:27.657Z,97322.66
2022-08-18T01:34:28.963Z,97316.59
2022-08-18T01:36:30.367Z,97320.97
2022-08-18T01:38:32.182Z,97321.09
2022-08-18T01:41:23.094Z,97314.25
2022-08-18T01:42:56.919Z,97316.72
2022-08-18T01:44:58.252Z,97312.56
2022-08-18T01:46:59.546Z,97316.72
2022-08-18T01:49:01.250Z,97315.84
2022-08-18T01:51:02.622Z,97311.44
2022-08-18T01:53:05.590Z,97318.38
2022-08-18T01:55:07.998Z,97320.00
2022-08-18T01:57:14.681Z,97318.28
2022-08-18T01:59:15.991Z,97305.41
2022-08-18T02:01:17.446Z,97309.75
2022-08-18T02:03:18.791Z,97308.13
2022-08-18T02:05:21.100Z,97308.16
2022-08-18T02:07:22.466Z,97307.41
2022-08-18T02:09:34.361Z,97303.16
2022-08-18T02:11:35.857Z,97304.88
2022-08-18T02:13:37.215Z,97310.00
2022-08-18T02:15:38.554Z,97304.97
2022-08-18T02:17:43.378Z,97309.31
2022-08-18T02:19:44.716Z,97320.47
2022-08-18T02:21:46.019Z,97315.34
2022-08-18T02:23:53.406Z,97319.69
2022-08-18T02:25:55.300Z,97314.50
2022-08-18T02:27:56.609Z,97315.44
2022-08-18T02:29:57.924Z,97313.81
2022-08-18T02:31:59.236Z,97311.25
2022-08-18T02:34:00.558Z,97312.13
2022-08-18T02:36:02.407Z,97317.34
2022-08-18T02:38:03.916Z,97321.66
2022-08-18T02:40:05.339Z,97308.41
2022-08-18T02:42:07.247Z,97310.66
2022-08-18T02:44:08.555Z,97312.09
2022-08-18T02:46:09.864Z,97315.31
2022-08-18T02:48:11.192Z,97320.72
2022-08-18T02:50:12.503Z,97322.16
2022-08-18T02:52:13.845Z,97318.66
2022-08-18T02:54:15.167Z,97319.50
2022-08-18T02:56:39.865Z,97332.34
2022-08-18T02:58:43.048Z,97317.81
2022-08-18T03:00:44.400Z,97313.53
2022-08-18T03:02:45.703Z,97308.41
2022-08-18T03:04:47.305Z,97316.09
2022-08-18T03:06:48.921Z,97307.56
2022-08-18T03:08:52.170Z,97301.69
2022-08-18T03:10:53.806Z,97308.97
2022-08-18T03:12:55.114Z,97300.34
2022-08-18T03:14:57.457Z,97312.31
2022-08-18T03:16:58.820Z,97305.53
2022-08-18T03:19:00.123Z,97304.69
2022-08-18T03:21:02.049Z,97323.56
2022-08-18T03:23:09.779Z,97314.09
2022-08-18T03:25:11.507Z,97309.06
2022-08-18T03:27:12.975Z,97307.38
2022-08-18T03:29:14.375Z,97305.78
2022-08-18T03:31:15.670Z,97298.22
2022-08-18T03:33:16.982Z,97312.69
2022-08-18T03:35:18.588Z,97308.28
2022-08-18T03:37:19.942Z,97306.63
2022-08-18T03:39:27.514Z,97306.50
2022-08-18T03:41:44.016Z,97317.63
2022-08-18T03:43:51.867Z,97298.88
2022-08-18T03:45:54.606Z,97296.31
2022-08-18T03:47:56.299Z,97292.84
2022-08-18T03:49:57.599Z,97300.41
2022-08-18T03:52:00.867Z,97298.72
2022-08-18T03:54:02.487Z,97308.22
2022-08-18T03:56:03.799Z,97305.53
2022-08-18T03:58:05.136Z,97308.72
2022-08-18T04:00:06.492Z,97301.97
2022-08-18T04:02:07.823Z,97298.50
2022-08-18T04:04:09.176Z,97297.72
2022-08-18T04:06:12.629Z,97295.38
2022-08-18T04:08:14.035Z,97291.00
2022-08-18T04:10:19.619Z,97286.44
2022-08-18T04:12:21.207Z,97292.28
2022-08-18T04:14:24.052Z,97288.13
2022-08-18T04:16:25.467Z,97295.09
2022-08-18T04:18:27.995Z,97300.28
2022-08-18T04:20:29.457Z,97292.72
2022-08-18T04:22:33.759Z,97300.41
2022-08-18T04:24:35.068Z,97294.28
2022-08-18T04:26:37.303Z,97297.66
2022-08-18T04:28:38.689Z,97291.72
2022-08-18T04:30:39.982Z,97289.31
2022-08-18T04:32:41.291Z,97291.97
2022-08-18T04:34:42.599Z,97304.00
2022-08-18T04:36:44.024Z,97305.72
2022-08-18T04:38:45.347Z,97307.25
2022-08-18T04:40:47.404Z,97303.81
2022-08-18T04:42:48.717Z,97308.94
2022-08-18T04:44:51.398Z,97306.41
2022-08-18T04:46:52.747Z,97309.44
2022-08-18T04:48:58.837Z,97307.59
2022-08-18T04:51:00.167Z,97306.63
2022-08-18T04:53:20.378Z,97313.50
2022-08-18T04:55:22.178Z,97302.47
2022-08-18T04:57:24.061Z,97307.41
2022-08-18T04:59:25.450Z,97311.59
2022-08-18T05:01:26.932Z,97312.41
2022-08-18T05:03:28.314Z,97308.03
2022-08-18T05:05:29.616Z,97319.25
2022-08-18T05:07:30.929Z,97321.59
2022-08-18T05:09:32.251Z,97316.69
2022-08-18T05:11:44.447Z,97320.84
2022-08-18T05:13:45.770Z,97316.69
2022-08-18T05:16:09.084Z,97322.66
2022-08-18T05:18:08.411Z,97315.81
2022-08-18T05:20:15.288Z,97324.28
2022-08-18T05:22:28.810Z,97314.88
2022-08-18T05:24:37.717Z,97325.13
2022-08-18T05:26:41.507Z,97317.41
2022-08-18T05:28:42.896Z,97319.97
2022-08-18T05:30:44.198Z,97318.91
2022-08-18T05:32:49.173Z,97323.84
2022-08-18T05:34:51.787Z,97332.31
2022-08-18T05:36:53.247Z,97329.56
2022-08-18T05:38:54.591Z,97329.84
2022-08-18T05:40:56.203Z,97325.41
2022-08-18T05:42:57.559Z,97328.69
2022-08-18T05:44:58.883Z,97333.88
2022-08-18T05:47:00.187Z,97321.75
2022-08-18T05:49:01.503Z,97323.50
2022-08-18T05:51:03.236Z,97324.31
2022-08-18T05:53:05.564Z,97314.97
2022-08-18T05:55:34.431Z,97320.03
2022-08-18T05:57:37.094Z,97323.41
2022-08-18T05:59:38.492Z,97321.56
2022-08-18T06:01:41.439Z,97324.13
2022-08-18T06:03:45.313Z,97322.38
2022-08-18T06:05:48.224Z,97324.81
2022-08-18T06:07:49.544Z,97322.97
2022-08-18T06:09:50.902Z,97315.00
2022-08-18T06:11:52.233Z,97313.28
2022-08-18T06:13:59.078Z,97314.16
2022-08-18T06:16:01.379Z,97309.78
2022-08-18T06:18:02.720Z,97312.22
2022-08-18T06:20:04.203Z,97313.06
2022-08-18T06:22:05.512Z,97319.78
2022-08-18T06:24:07.023Z,97311.22
2022-08-18T06:26:08.343Z,97312.09
2022-08-18T06:28:10.793Z,97309.41
2022-08-18T06:30:12.205Z,97314.41
2022-08-18T06:32:14.127Z,97310.09
2022-08-18T06:34:15.479Z,97318.47
2022-08-18T06:36:18.189Z,97315.91
2022-08-18T06:38:39.128Z,97311.69
2022-08-18T06:40:40.433Z,97319.03
2022-08-18T06:42:41.735Z,97315.06
2022-08-18T06:44:43.052Z,97318.44
2022-08-18T06:46:44.364Z,97313.28
2022-08-18T06:48:48.101Z,97320.06
2022-08-18T06:50:49.416Z,97311.75
2022-08-18T06:52:50.756Z,97313.00
2022-08-18T06:54:52.143Z,97316.84
2022-08-18T06:56:53.535Z,97317.38
2022-08-18T06:58:55.325Z,97311.97
2022-08-18T07:00:56.716Z,97319.16
2022-08-18T07:02:58.367Z,97311.72
2022-08-18T07:04:59.795Z,97320.38
2022-08-18T07:07:01.110Z,97318.78
2022-08-18T07:09:02.580Z,97323.16
2022-08-18T07:11:03.968Z,97329.06
2022-08-18T07:13:05.274Z,97335.97
2022-08-18T07:15:07.570Z,97330.84
2022-08-18T07:17:08.936Z,97328.41
2022-08-18T07:19:10.344Z,97323.34
2022-08-18T07:21:11.648Z,97327.66
2022-08-18T07:23:12.957Z,97328.41
2022-08-18T07:25:14.608Z,97325.03
2022-08-18T07:27:17.523Z,97323.38
2022-08-18T07:29:18.918Z,97331.34
2022-08-18T07:31:20.308Z,97334.06
2022-08-18T07:33:21.687Z,97344.44
2022-08-18T07:35:24.211Z,97340.19
2022-08-18T07:37:28.998Z,97344.50
2022-08-18T07:39:30.575Z,97344.50
2022-08-18T07:41:32.023Z,97346.25
2022-08-18T07:43:33.323Z,97343.69
2022-08-18T07:45:36.160Z,97343.53
2022-08-18T07:47:37.670Z,97341.78
2022-08-18T07:49:43.046Z,97341.78
2022-08-18T07:51:55.961Z,97350.28
2022-08-18T07:53:57.936Z,97349.31
2022-08-18T07:55:59.245Z,97353.38
2022-08-18T07:58:00.580Z,97351.53
2022-08-18T08:00:01.899Z,97360.69
2022-08-18T08:02:03.310Z,97363.03
2022-08-18T08:04:04.790Z,97359.38
2022-08-18T08:06:06.140Z,97365.34
2022-08-18T08:08:08.025Z,97359.25
2022-08-18T08:10:09.363Z,97366.81
2022-08-18T08:12:11.157Z,97362.31
2022-08-18T08:14:12.480Z,97345.09
2022-08-18T08:16:13.830Z,97358.84
2022-08-18T08:18:15.212Z,97349.34
2022-08-18T08:20:16.559Z,97338.31
2022-08-18T08:22:18.061Z,97339.34
2022-08-18T08:24:19.487Z,97342.03
2022-08-18T08:26:22.242Z,97342.41
2022-08-18T08:28:23.704Z,97351.91
2022-08-18T08:30:25.008Z,97356.69
2022-08-18T08:32:28.436Z,97352.38
2022-08-18T08:34:29.787Z,97346.72
2022-08-18T08:36:31.094Z,97351.00
2022-08-18T08:38:43.044Z,97333.56
2022-08-18T08:40:46.092Z,97344.59
2022-08-18T08:42:47.979Z,97346.44
2022-08-18T08:44:59.040Z,97347.78
2022-08-18T08:47:00.717Z,97340.13
2022-08-18T08:49:02.043Z,97340.66
2022-08-18T08:51:03.540Z,97337.34
2022-08-18T08:53:04.879Z,97334.91
2022-08-18T08:55:06.512Z,97340.13
2022-08-18T08:57:08.967Z,97343.75
2022-08-18T08:59:11.292Z,97335.50
2022-08-18T09:01:12.954Z,97335.72
2022-08-18T09:03:14.348Z,97334.16
2022-08-18T09:05:15.695Z,97323.16
2022-08-18T09:07:17.051Z,97318.28
2022-08-18T09:09:18.407Z,97323.59
2022-08-18T09:11:19.723Z,97316.75
2022-08-18T09:13:23.325Z,97309.59
2022-08-18T09:15:28.324Z,97324.34
2022-08-18T09:17:33.969Z,97307.69
2022-08-18T09:19:35.717Z,97303.38
2022-08-18T09:21:37.064Z,97302.22
2022-08-18T09:23:38.456Z,97297.97
2022-08-18T09:25:40.016Z,97303.03
2022-08-18T09:28:07.107Z,97299.88
2022-08-18T09:30:03.375Z,97295.31
2022-08-18T09:32:04.697Z,97289.00
2022-08-18T09:36:27.809Z,97292.41
2022-08-18T09:38:48.500Z,97292.19
2022-08-18T09:41:08.426Z,97282.47
2022-08-18T09:43:09.775Z,97277.53
2022-08-18T09:45:13.484Z,97277.44
2022-08-18T09:47:16.064Z,97275.88
2022-08-18T09:49:17.722Z,97274.06
2022-08-18T09:51:20.803Z,97269.50
2022-08-18T09:53:24.642Z,97268.22
2022-08-18T09:55:26.035Z,97267.50
2022-08-18T09:57:27.994Z,97269.97
2022-08-18T09:59:30.025Z,97267.22
2022-08-18T10:01:34.550Z,97271.63
2022-08-18T10:03:37.563Z,97266.16
2022-08-18T10:05:38.991Z,97260.69
2022-08-18T10:07:43.489Z,97254.84
2022-08-18T10:09:45.388Z,97257.38
2022-08-18T10:11:46.907Z,97263.41
2022-08-18T10:13:53.427Z,97263.56
2022-08-18T10:15:54.792Z,97254.84
2022-08-18T10:17:56.107Z,97245.88
2022-08-18T10:19:58.613Z,97251.38
2022-08-18T10:22:02.325Z,97239.84
2022-08-18T10:26:24.915Z,97253.78
2022-08-18T10:28:26.637Z,97252.16
2022-08-18T10:30:34.407Z,97249.34
2022-08-18T10:32:37.706Z,97247.91
2022-08-18T10:34:39.048Z,97261.50
2022-08-18T10:36:40.721Z,97253.25
2022-08-18T10:38:46.072Z,97253.41
2022-08-18T10:40:50.559Z,97253.41
2022-08-18T10:45:13.322Z,97250.13
2022-08-18T10:47:24.979Z,97253.59
2022-08-18T10:49:26.486Z,97246.06
2022-08-18T10:51:27.963Z,97240.16
2022-08-18T10:53:39.871Z,97244.47
2022-08-18T10:55:48.652Z,97236.94
2022-08-18T10:57:50.857Z,97237.81
2022-08-18T10:59:54.734Z,97244.78
2022-08-18T11:01:56.373Z,97243.94
2022-08-18T11:03:59.000Z,97237.91
2022-08-18T11:06:00.748Z,97246.44
2022-08-18T11:08:02.121Z,97243.81
2022-08-18T11:10:22.258Z,97240.31
2022-08-18T11:12:25.007Z,97233.56
2022-08-18T11:14:29.680Z,97234.56
2022-08-18T11:16:35.392Z,97237.56
2022-08-18T11:18:43.382Z,97229.59
2022-08-18T11:20:47.306Z,97230.47
2022-08-18T11:22:49.022Z,97230.72
2022-08-18T11:24:52.811Z,97237.25
2022-08-18T11:26:54.758Z,97239.03
2022-08-18T11:28:56.065Z,97233.19
2022-08-18T11:30:58.190Z,97243.00
2022-08-18T11:33:01.146Z,97241.56
2022-08-18T11:35:04.144Z,97239.22
2022-08-18T11:37:09.134Z,97232.56
2022-08-18T11:39:10.703Z,97244.75
2022-08-18T11:41:13.576Z,97249.09
2022-08-18T11:43:15.339Z,97250.91
2022-08-18T11:45:17.579Z,97255.41
2022-08-18T11:47:27.661Z,97258.03
2022-08-18T11:49:30.087Z,97253.88
2022-08-18T11:51:34.736Z,97250.53
2022-08-18T11:53:36.044Z,97254.00
2022-08-18T11:55:39.825Z,97252.41
2022-08-18T11:57:50.022Z,97260.25
2022-08-18T11:59:55.077Z,97257.69
2022-08-18T12:02:02.304Z,97260.34
2022-08-18T12:04:03.621Z,97255.28
2022-08-18T12:06:05.044Z,97258.75
2022-08-18T12:08:15.437Z,97257.97
2022-08-18T12:10:30.656Z,97266.59
2022-08-18T12:12:31.968Z,97264.94
2022-08-18T12:14:35.237Z,97269.31
2022-08-18T12:16:38.023Z,97259.94
2022-08-18T12:18:39.324Z,97267.63
2022-08-18T12:20:43.267Z,97264.31
2022-08-18T12:22:46.039Z,97254.94
2022-08-18T12:24:48.320Z,97254.94
2022-08-18T12:26:49.887Z,97255.03
2022-08-18T12:28:55.159Z,97261.00
2022-08-18T12:31:03.414Z,97261.06
2022-08-18T12:33:16.595Z,97257.69
2022-08-18T12:35:26.453Z,97255.19
2022-08-18T12:37:57.634Z,97261.16
2022-08-18T12:39:49.199Z,97253.53
2022-08-18T12:41:50.792Z,97258.66
2022-08-18T12:46:15.165Z,97239.88
2022-08-18T12:48:16.530Z,97242.44
2022-08-18T12:50:17.909Z,97236.47
2022-08-18T12:52:20.383Z,97245.84
2022-08-18T12:54:22.098Z,97239.88
2022-08-18T12:56:26.466Z,97237.28
2022-08-18T12:58:29.032Z,97243.28
2022-08-18T13:00:30.380Z,97233.00
2022-08-18T13:02:31.803Z,97231.19
2022-08-18T13:04:33.384Z,97232.03
2022-08-18T13:06:34.691Z,97234.59
2022-08-18T13:08:47.765Z,97227.69
2022-08-18T13:10:51.452Z,97227.69
2022-08-18T13:12:59.793Z,97225.13
2022-08-18T13:15:01.142Z,97213.97
2022-08-18T13:17:03.212Z,97218.13
2022-08-18T13:19:06.092Z,97212.09
2022-08-18T13:21:07.671Z,97206.88
2022-08-18T13:23:11.136Z,97213.69
2022-08-18T13:25:12.471Z,97215.50
2022-08-18T13:27:13.819Z,97205.25
2022-08-18T13:29:24.687Z,97208.56
2022-08-18T13:31:26.800Z,97191.41
2022-08-18T13:33:35.315Z,97184.53
2022-08-18T13:35:54.093Z,97177.66
2022-08-18T13:37:56.809Z,97181.06
2022-08-18T13:39:58.361Z,97178.59
2022-08-18T13:42:00.532Z,97171.69
2022-08-18T13:44:02.210Z,97026.22
2022-08-18T13:46:04.822Z,97157.97
2022-08-18T13:48:06.753Z,97151.94
2022-08-18T13:50:10.046Z,97147.59
2022-08-18T13:52:33.035Z,97147.59
2022-08-18T13:54:35.424Z,97147.59
2022-08-18T13:56:36.979Z,97137.34
2022-08-18T13:58:41.167Z,97129.59
2022-08-18T14:00:54.867Z,97137.44
2022-08-18T14:02:57.254Z,97134.97
2022-08-18T14:04:58.776Z,97144.44
2022-08-18T14:07:03.214Z,97149.56
2022-08-18T14:09:19.919Z,97147.09
2022-08-18T14:11:32.879Z,97156.53
2022-08-18T14:13:43.548Z,97148.91
2022-08-18T14:15:47.208Z,97156.69
2022-08-18T14:17:52.962Z,97155.03
2022-08-18T14:20:15.359Z,97158.50
2022-08-18T14:22:42.062Z,97173.00
2022-08-18T14:25:02.292Z,97173.88
2022-08-18T14:27:06.158Z,97177.34
2022-08-18T14:29:11.269Z,97182.47
2022-08-18T14:31:20.518Z,97185.97
2022-08-18T14:33:21.972Z,97190.31
2022-08-18T14:36:04.112Z,97179.31
2022-08-18T14:37:57.251Z,97194.72
2022-08-18T14:39:58.618Z,97190.50
2022-08-18T14:41:59.954Z,97188.81
2022-08-18T14:44:12.902Z,97184.59
2022-08-18T14:46:15.607Z,97177.81
2022-08-18T14:48:17.974Z,97168.44
2022-08-18T14:50:19.802Z,97182.16
2022-08-18T14:52:23.510Z,97181.28
2022-08-18T14:54:28.651Z,97179.59
2022-08-18T14:56:36.482Z,97170.25
2022-08-18T14:58:40.905Z,97171.94
2022-08-18T15:00:53.712Z,97166.81
2022-08-18T15:02:57.374Z,97175.38
2022-08-18T15:05:00.963Z,97166.91
2022-08-18T15:07:02.558Z,97171.94
2022-08-18T15:09:03.922Z,97169.47
2022-08-18T15:11:11.317Z,97162.59
2022-08-18T15:13:13.187Z,97160.00
2022-08-18T15:15:17.750Z,97158.38
2022-08-18T15:17:19.191Z,97153.25
2022-08-18T15:19:37.868Z,97160.09
2022-08-18T15:22:02.962Z,97169.47
2022-08-18T15:24:23.029Z,97164.41
2022-08-18T15:26:24.363Z,97157.63
2022-08-18T15:28:27.883Z,97149.00
2022-08-18T15:30:29.291Z,97143.97
2022-08-18T15:32:30.658Z,97150.72
2022-08-18T15:34:31.984Z,97145.59
2022-08-18T15:36:35.850Z,97153.31
2022-08-18T15:38:37.217Z,97146.44
2022-08-18T15:40:41.647Z,97019.09
2022-08-18T15:42:46.415Z,97132.78
2022-08-18T15:44:48.361Z,97137.00
2022-08-18T15:46:53.984Z,97060.69
2022-08-18T15:48:55.748Z,97141.31
2022-08-18T15:50:57.139Z,97136.19
2022-08-18T15:53:09.392Z,97147.28
2022-08-18T15:55:10.731Z,97140.47
2022-08-18T15:57:38.918Z,97131.88
2022-08-18T15:59:40.202Z,97128.56
2022-08-18T16:01:43.434Z,97137.91
2022-08-18T16:03:48.919Z,97130.22
2022-08-18T16:05:51.639Z,97117.47
2022-08-18T16:07:55.781Z,97120.03
2022-08-18T16:09:57.530Z,97117.53
2022-08-18T16:12:00.494Z,97111.59
2022-08-18T16:14:02.054Z,97110.75
2022-08-18T16:16:03.357Z,97096.25
2022-08-18T16:18:04.672Z,97091.13
2022-08-18T16:20:05.981Z,97092.84
2022-08-18T16:22:07.495Z,97095.41
2022-08-18T16:24:08.928Z,97094.63
2022-08-18T16:26:10.259Z,97089.47
2022-08-18T16:28:14.582Z,97086.09
2022-08-18T16:30:15.943Z,97101.47
2022-08-18T16:32:17.299Z,97087.81
2022-08-18T16:34:18.643Z,97083.56
2022-08-18T16:36:19.986Z,97082.69
2022-08-18T16:38:21.627Z,97081.00
2022-08-18T16:40:23.463Z,97082.69
2022-08-18T16:42:32.636Z,97073.31
2022-08-18T16:44:34.080Z,97064.81
2022-08-18T16:46:35.456Z,97074.25
2022-08-18T16:48:36.836Z,97069.94
2022-08-18T16:50:38.405Z,97069.94
2022-08-18T16:52:39.791Z,97069.94
2022-08-18T16:54:41.269Z,97074.25
2022-08-18T16:56:42.594Z,97066.53
2022-08-18T16:59:02.491Z,97064.88
2022-08-18T17:01:25.341Z,97065.72
2022-08-18T17:03:52.551Z,97067.44
2022-08-18T17:05:53.883Z,97064.97
2022-08-18T17:07:55.173Z,97064.13
2022-08-18T17:09:57.438Z,97064.97
2022-08-18T17:11:58.763Z,97064.13
2022-08-18T17:14:00.129Z,97067.59
2022-08-18T17:16:01.490Z,97070.16
2022-08-18T17:18:03.034Z,97063.28
2022-08-18T17:20:07.015Z,97060.72
2022-08-18T17:22:12.877Z,97057.31
2022-08-18T17:24:14.698Z,97059.88
2022-08-18T17:26:19.843Z,97061.63
2022-08-18T17:28:26.170Z,97054.84
2022-08-18T17:30:27.661Z,97058.25
2022-08-18T17:32:29.027Z,97057.41
2022-08-18T17:34:30.387Z,97058.25
2022-08-18T17:36:31.724Z,97059.13
2022-08-18T17:38:34.151Z,97055.75
2022-08-18T17:40:35.494Z,97061.72
2022-08-18T17:42:40.144Z,97061.72
2022-08-18T17:44:46.221Z,97066.00
2022-08-18T17:46:53.514Z,97059.22
2022-08-18T17:48:54.875Z,97063.53
2022-08-18T17:51:14.780Z,97064.34
2022-08-18T17:53:16.086Z,97066.09
2022-08-18T17:55:20.082Z,97060.97
2022-08-18T17:57:23.431Z,97069.53
2022-08-18T17:59:46.409Z,97064.41
2022-08-18T18:01:46.256Z,97058.44
2022-08-18T18:03:47.648Z,97068.72
2022-08-18T18:05:48.949Z,97069.53
2022-08-18T18:07:54.718Z,97064.41
2022-08-18T18:09:56.166Z,97065.31
2022-08-18T18:11:57.461Z,97059.38
2022-08-18T18:13:58.770Z,97060.19
2022-08-18T18:16:03.105Z,97055.97
2022-08-18T18:18:04.410Z,97056.81
2022-08-18T18:20:05.869Z,97055.13
2022-08-18T18:22:07.176Z,97046.59
2022-08-18T18:24:08.503Z,97063.66
2022-08-18T18:26:09.795Z,97053.41
2022-08-18T18:28:11.194Z,97054.31
2022-08-18T18:30:12.539Z,97052.56
2022-08-18T18:32:13.863Z,97049.16
2022-08-18T18:34:23.563Z,97045.78
2022-08-18T18:36:29.140Z,97052.66
2022-08-18T18:38:30.466Z,97051.75
2022-08-18T18:40:31.824Z,97052.66
2022-08-18T18:42:33.242Z,97053.56
2022-08-18T18:44:34.577Z,97042.47
2022-08-18T18:46:35.915Z,97042.47
2022-08-18T18:48:45.059Z,97025.44
2022-08-18T18:50:56.129Z,97032.19
2022-08-18T18:52:57.960Z,97026.25
2022-08-18T18:54:59.698Z,97025.44
2022-08-18T18:57:01.026Z,97028.00
2022-08-18T18:59:02.346Z,97028.00
2022-08-18T19:01:03.863Z,97028.06
2022-08-18T19:03:05.263Z,97037.41
2022-08-18T19:05:07.675Z,97025.50
2022-08-18T19:07:09.062Z,97031.44
2022-08-18T19:09:10.374Z,97031.44
2022-08-18T19:11:11.686Z,97023.75
2022-08-18T19:13:26.868Z,97025.50
2022-08-18T19:15:38.217Z,97011.00
2022-08-18T19:17:39.824Z,97005.06
2022-08-18T19:19:41.140Z,97011.91
2022-08-18T19:22:03.153Z,97013.56
2022-08-18T19:24:03.933Z,97008.44
2022-08-18T19:26:08.377Z,97010.19
2022-08-18T19:28:09.974Z,97000.81
2022-08-18T19:30:11.326Z,97000.81
2022-08-18T19:32:16.404Z,96999.94
2022-08-18T19:34:18.274Z,96995.69
2022-08-18T19:36:20.966Z,96982.03
2022-08-18T19:38:22.887Z,96984.59
2022-08-18T19:40:24.233Z,96987.16
2022-08-18T19:42:25.575Z,96976.91
2022-08-18T19:44:29.080Z,96971.78
2022-08-18T19:46:34.738Z,96969.22
2022-08-18T19:48:36.126Z,96964.09
2022-08-18T19:50:38.867Z,96958.13
2022-08-18T19:52:46.870Z,96958.13
2022-08-18T19:54:57.155Z,96948.78
2022-08-18T19:56:58.481Z,96950.53
2022-08-18T19:59:18.244Z,96943.66
2022-08-18T20:01:21.425Z,96941.09
2022-08-18T20:03:22.806Z,96945.41
2022-08-18T20:05:25.497Z,96817.56
2022-08-18T20:07:26.803Z,96938.59
2022-08-18T20:09:28.123Z,96946.22
2022-08-18T20:11:42.048Z,96942.84
2022-08-18T20:13:44.095Z,96948.84
2022-08-18T20:15:45.560Z,96953.09
2022-08-18T20:17:46.871Z,96960.78
2022-08-18T20:19:48.223Z,96949.69
2022-08-18T20:21:49.539Z,96959.09
2022-08-18T20:23:50.842Z,96953.19
2022-08-18T20:25:52.146Z,96947.28
2022-08-18T20:27:53.450Z,96946.38
2022-08-18T20:29:54.807Z,96952.34
2022-08-18T20:31:58.494Z,96948.06
2022-08-18T20:34:00.670Z,96944.66
2022-08-18T20:36:03.279Z,96949.84
2022-08-18T20:38:04.783Z,96949.84
2022-08-18T20:40:07.635Z,96954.97
2022-08-18T20:42:09.971Z,96960.94
2022-08-18T20:44:21.872Z,96966.06
2022-08-18T20:46:36.232Z,96961.81
2022-08-18T20:48:38.904Z,96961.81
2022-08-18T20:50:40.198Z,96949.84
2022-08-18T20:52:43.260Z,96943.06
2022-08-18T20:54:57.630Z,96950.75
2022-08-18T20:56:59.742Z,96953.31
2022-08-18T20:59:04.008Z,96943.97
2022-08-18T21:01:10.469Z,96950.75
2022-08-18T21:03:11.835Z,96950.00
2022-08-18T21:05:16.785Z,96956.78
2022-08-18T21:07:36.224Z,96961.06
2022-08-18T21:09:38.992Z,96962.75
2022-08-18T21:11:40.298Z,96963.66
2022-08-18T21:13:41.605Z,96974.72
2022-08-18T21:15:42.922Z,96986.72
2022-08-18T21:17:44.582Z,96977.38
2022-08-18T21:19:46.054Z,96973.88
2022-08-18T21:21:47.368Z,96976.91
2022-08-18T21:23:48.773Z,96969.69
2022-08-18T21:25:50.315Z,96976.81
2022-08-18T21:27:51.617Z,96986.09
2022-08-18T21:29:52.959Z,96992.72
2022-08-18T21:31:54.371Z,96979.44
2022-08-18T21:33:55.836Z,96993.06
2022-08-18T21:35:57.178Z,96991.22
2022-08-18T21:37:58.536Z,96989.41
2022-08-18T21:39:59.982Z,96985.75
2022-08-18T21:42:01.536Z,96989.38
2022-08-18T21:44:02.834Z,96952.00
2022-08-18T21:46:04.598Z,96978.63
2022-08-18T21:48:10.887Z,96985.22
2022-08-18T21:50:12.320Z,96990.38
2022-08-18T21:52:13.799Z,97003.59
2022-08-18T21:54:17.763Z,97002.97
2022-08-18T21:56:19.118Z,96998.78
2022-08-18T21:58:20.487Z,96993.06
2022-08-18T22:00:34.514Z,96997.25
2022-08-18T22:02:35.847Z,96995.50
2022-08-18T22:04:37.462Z,96997.78
2022-08-18T22:06:40.282Z,97000.28
2022-08-18T22:08:41.587Z,97001.16
2022-08-18T22:11:06.590Z,97000.38
2022-08-18T22:13:26.418Z,96999.00
2022-08-18T22:15:27.720Z,97002.50
2022-08-18T22:17:29.034Z,96990.56
2022-08-18T22:19:30.355Z,96993.06
2022-08-18T22:21:32.087Z,96992.47
2022-08-18T22:23:52.839Z,96998.69
2022-08-18T22:25:54.185Z,97001.16
2022-08-18T22:27:57.005Z,97004.13
2022-08-18T22:30:04.624Z,96999.56
2022-08-18T22:32:05.922Z,96995.31
2022-08-18T22:34:07.504Z,96994.25
2022-08-18T22:36:08.824Z,97001.97
2022-08-18T22:38:10.136Z,96998.31
2022-08-18T22:40:11.515Z,96992.53
2022-08-18T22:42:13.726Z,96993.69
2022-08-18T22:44:15.027Z,96992.75
2022-08-18T22:46:20.301Z,96989.44
2022-08-18T22:48:25.627Z,96997.16
2022-08-18T22:50:26.935Z,96999.66
2022-08-18T22:52:30.238Z,97005.72
2022-08-18T22:54:31.685Z,97008.13
2022-08-18T22:56:34.403Z,97000.72
2022-08-18T22:58:36.866Z,96997.44
2022-08-18T23:00:40.805Z,96994.72
2022-08-18T23:02:44.382Z,96994.66
2022-08-18T23:04:45.736Z,96995.47
2022-08-18T23:06:51.592Z,96989.34
2022-08-18T23:08:54.683Z,96981.75
2022-08-18T23:10:57.246Z,96982.88
2022-08-18T23:13:03.621Z,96984.03
2022-08-18T23:15:14.439Z,96985.03
2022-08-18T23:17:15.810Z,96979.59
2022-08-18T23:19:17.223Z,96976.63
2022-08-18T23:21:35.143Z,96981.63
2022-08-18T23:23:37.008Z,96988.16
2022-08-18T23:25:39.514Z,96990.66
2022-08-18T23:27:42.919Z,96991.84
2022-08-18T23:29:44.514Z,96990.78
2022-08-18T23:31:45.851Z,96984.44
2022-08-18T23:33:47.527Z,96982.66
2022-08-18T23:35:49.074Z,96987.22
2022-08-18T23:37:50.384Z,96985.56
2022-08-18T23:39:51.764Z,96989.88
2022-08-18T23:41:53.738Z,96981.66
2022-08-18T23:43:56.694Z,96981.75
2022-08-18T23:45:58.055Z,96975.84
2022-08-18T23:47:59.406Z,96975.94
2022-08-18T23:50:01.625Z,96982.09
2022-08-18T23:52:02.935Z,96980.38
2022-08-18T23:54:04.275Z,96976.22
2022-08-18T23:56:06.158Z,96966.22
2022-08-18T23:58:09.643Z,96969.91
